createdAt,value
2019-01-03T00:00:03.041Z,4.60
2019-01-03T00:01:56.353Z,5.10
2019-01-03T00:02:56.330Z,4.40
2019-01-03T00:04:49.104Z,4.00
2019-01-03T00:05:49.037Z,4.50
2019-01-03T00:07:41.834Z,5.70
2019-01-03T00:08:41.787Z,4.80
2019-01-03T00:10:35.122Z,5.00
2019-01-03T00:11:35.052Z,3.90
2019-01-03T00:13:28.340Z,4.80
2019-01-03T00:14:28.298Z,4.60
2019-01-03T00:16:21.580Z,4.60
2019-01-03T00:17:21.513Z,4.50
2019-01-03T00:19:14.752Z,4.70
2019-01-03T00:20:14.702Z,5.40
2019-01-03T00:22:07.984Z,6.60
2019-01-03T00:23:07.917Z,4.70
2019-01-03T00:25:00.711Z,4.10
2019-01-03T00:26:00.669Z,5.30
2019-01-03T00:27:53.476Z,4.80
2019-01-03T00:28:53.421Z,4.80
2019-01-03T00:30:46.211Z,5.20
2019-01-03T00:31:46.166Z,4.90
2019-01-03T00:33:39.455Z,4.80
2019-01-03T00:34:39.384Z,4.30
2019-01-03T00:36:32.691Z,4.80
2019-01-03T00:37:32.624Z,6.00
2019-01-03T00:39:25.426Z,5.00
2019-01-03T00:40:25.394Z,4.40
2019-01-03T00:42:18.660Z,4.60
2019-01-03T00:43:18.612Z,4.50
2019-01-03T00:45:11.986Z,5.40
2019-01-03T00:46:11.786Z,3.60
2019-01-03T00:48:04.600Z,4.40
2019-01-03T00:49:04.536Z,3.80
2019-01-03T00:50:57.329Z,4.10
2019-01-03T00:51:57.288Z,4.80
2019-01-03T00:53:50.556Z,4.20
2019-01-03T00:54:50.483Z,6.80
2019-01-03T00:56:43.278Z,4.70
2019-01-03T00:57:43.231Z,4.80
2019-01-03T00:59:36.045Z,4.30
2019-01-03T01:00:35.977Z,4.40
2019-01-03T01:02:29.280Z,4.60
2019-01-03T01:03:29.213Z,5.30
2019-01-03T01:05:22.454Z,4.20
2019-01-03T01:06:22.405Z,3.90
2019-01-03T01:08:15.218Z,4.60
2019-01-03T01:09:15.153Z,4.40
2019-01-03T01:11:08.396Z,4.80
2019-01-03T01:12:08.351Z,4.80
2019-01-03T01:14:01.633Z,3.90
2019-01-03T01:15:01.578Z,4.80
2019-01-03T01:16:54.362Z,3.40
2019-01-03T01:17:54.328Z,4.30
2019-01-03T01:19:47.132Z,4.30
2019-01-03T01:20:47.097Z,3.90
2019-01-03T01:22:39.864Z,4.00
2019-01-03T01:23:39.817Z,6.00
2019-01-03T01:25:33.089Z,4.20
2019-01-03T01:26:33.019Z,4.90
2019-01-03T01:28:25.835Z,4.40
2019-01-03T01:29:25.767Z,4.90
2019-01-03T01:31:19.079Z,3.90
2019-01-03T01:32:19.083Z,4.40
2019-01-03T01:34:12.309Z,4.70
2019-01-03T01:35:12.242Z,4.70
2019-01-03T01:37:05.501Z,3.80
2019-01-03T01:38:05.454Z,4.10
2019-01-03T01:39:58.368Z,5.50
2019-01-03T01:40:58.204Z,3.50
2019-01-03T01:42:51.987Z,4.80
2019-01-03T01:43:51.935Z,4.00
2019-01-03T01:45:45.730Z,5.40
2019-01-03T01:46:45.667Z,4.20
2019-01-03T01:48:38.468Z,4.60
2019-01-03T01:49:38.418Z,4.30
2019-01-03T01:51:31.278Z,4.90
2019-01-03T01:52:31.210Z,4.30
2019-01-03T01:54:24.456Z,5.00
2019-01-03T01:55:24.417Z,3.90
2019-01-03T01:57:17.718Z,4.90
2019-01-03T01:58:17.642Z,4.30
2019-01-03T02:00:10.928Z,4.30
2019-01-03T02:01:10.872Z,4.50
2019-01-03T02:03:04.116Z,4.30
2019-01-03T02:04:04.070Z,6.00
2019-01-03T02:05:56.888Z,4.10
2019-01-03T02:06:56.824Z,3.80
2019-01-03T02:08:49.613Z,5.20
2019-01-03T02:09:49.581Z,4.00
2019-01-03T02:11:42.388Z,4.80
2019-01-03T02:12:42.319Z,4.30
2019-01-03T02:14:35.110Z,4.00
2019-01-03T02:15:35.061Z,4.00
2019-01-03T02:17:28.339Z,4.00
2019-01-03T02:18:28.271Z,4.30
2019-01-03T02:20:21.068Z,3.70
2019-01-03T02:21:21.022Z,4.30
2019-01-03T02:23:14.321Z,3.50
2019-01-03T02:24:14.248Z,4.90
2019-01-03T02:26:07.040Z,4.90
2019-01-03T02:27:06.996Z,4.00
2019-01-03T02:29:00.274Z,3.30
2019-01-03T02:30:00.259Z,3.80
2019-01-03T02:31:53.483Z,4.30
2019-01-03T02:32:53.443Z,4.20
2019-01-03T02:34:46.308Z,4.30
2019-01-03T02:35:46.290Z,3.90
2019-01-03T02:37:39.075Z,4.40
2019-01-03T02:38:39.134Z,3.80
2019-01-03T02:40:31.797Z,4.30
2019-01-03T02:41:31.758Z,4.30
2019-01-03T02:43:24.571Z,4.40
2019-01-03T02:44:24.504Z,4.30
2019-01-03T02:46:17.684Z,3.70
2019-01-03T02:47:17.637Z,3.50
2019-01-03T02:49:10.919Z,3.90
2019-01-03T02:50:10.853Z,3.80
2019-01-03T02:52:04.145Z,3.50
2019-01-03T02:53:04.096Z,3.50
2019-01-03T02:54:56.923Z,3.10
2019-01-03T02:55:56.847Z,4.10
2019-01-03T02:57:49.664Z,3.90
2019-01-03T02:58:49.599Z,2.70
2019-01-03T03:00:42.385Z,3.20
2019-01-03T03:01:42.342Z,3.50
2019-01-03T03:03:35.164Z,2.80
2019-01-03T03:04:35.094Z,3.50
2019-01-03T03:06:27.887Z,3.50
2019-01-03T03:07:27.841Z,3.80
2019-01-03T03:09:21.176Z,5.00
2019-01-03T03:10:21.108Z,3.60
2019-01-03T03:12:14.350Z,4.50
2019-01-03T03:13:14.299Z,3.60
2019-01-03T03:15:07.122Z,4.40
2019-01-03T03:16:07.052Z,5.80
2019-01-03T03:18:00.344Z,3.50
2019-01-03T03:19:00.284Z,4.60
2019-01-03T03:20:53.528Z,3.10
2019-01-03T03:21:53.480Z,3.10
2019-01-03T03:23:46.806Z,3.70
2019-01-03T03:24:46.733Z,3.70
2019-01-03T03:26:39.531Z,4.30
2019-01-03T03:27:39.483Z,3.90
2019-01-03T03:29:32.297Z,4.70
2019-01-03T03:30:32.235Z,4.50
2019-01-03T03:32:25.029Z,3.50
2019-01-03T03:33:24.996Z,3.60
2019-01-03T03:35:18.262Z,3.40
2019-01-03T03:36:18.197Z,3.70
2019-01-03T03:38:11.508Z,3.90
2019-01-03T03:39:11.458Z,5.30
2019-01-03T03:41:04.737Z,3.70
2019-01-03T03:42:04.686Z,3.80
2019-01-03T03:43:57.487Z,3.70
2019-01-03T03:44:57.437Z,3.50
2019-01-03T03:46:50.680Z,3.40
2019-01-03T03:47:50.635Z,3.10
2019-01-03T03:49:43.913Z,3.50
2019-01-03T03:50:43.860Z,3.40
2019-01-03T03:52:37.083Z,4.30
2019-01-03T03:53:37.030Z,3.90
2019-01-03T03:55:29.862Z,4.10
2019-01-03T03:56:29.777Z,3.60
2019-01-03T03:58:22.574Z,4.20
2019-01-03T03:59:22.527Z,3.00
2019-01-03T04:01:15.805Z,4.00
2019-01-03T04:02:15.736Z,3.70
2019-01-03T04:04:09.003Z,3.30
2019-01-03T04:05:08.958Z,3.70
2019-01-03T04:07:02.235Z,3.70
2019-01-03T04:08:02.190Z,4.80
2019-01-03T04:09:55.416Z,5.50
2019-01-03T04:10:55.378Z,4.50
2019-01-03T04:12:48.185Z,5.60
2019-01-03T04:13:48.109Z,4.40
2019-01-03T04:15:40.934Z,4.00
2019-01-03T04:16:40.867Z,3.70
2019-01-03T04:18:33.659Z,3.60
2019-01-03T04:19:33.630Z,3.10
2019-01-03T04:21:26.429Z,3.60
2019-01-03T04:22:26.361Z,3.10
2019-01-03T04:24:19.157Z,4.20
2019-01-03T04:25:19.113Z,3.10
2019-01-03T04:27:12.473Z,2.80
2019-01-03T04:28:12.397Z,3.50
2019-01-03T04:30:05.687Z,3.00
2019-01-03T04:31:05.651Z,3.60
2019-01-03T04:32:58.918Z,3.80
2019-01-03T04:33:58.848Z,3.50
2019-01-03T04:35:52.085Z,3.70
2019-01-03T04:36:52.035Z,4.00
2019-01-03T04:38:45.331Z,3.50
2019-01-03T04:39:45.255Z,2.90
2019-01-03T04:41:38.094Z,3.20
2019-01-03T04:42:38.001Z,4.70
2019-01-03T04:44:31.384Z,3.10
2019-01-03T04:45:31.388Z,3.50
2019-01-03T04:47:24.094Z,3.80
2019-01-03T04:48:24.025Z,3.50
2019-01-03T04:50:16.821Z,3.80
2019-01-03T04:51:16.778Z,2.80
2019-01-03T04:53:10.054Z,3.40
2019-01-03T04:54:09.992Z,3.80
2019-01-03T04:56:03.250Z,4.00
2019-01-03T04:57:03.194Z,3.10
2019-01-03T04:58:56.527Z,3.70
2019-01-03T04:59:56.456Z,3.50
2019-01-03T05:01:49.696Z,2.90
2019-01-03T05:02:49.664Z,3.50
2019-01-03T05:04:42.932Z,3.30
2019-01-03T05:05:42.863Z,3.60
2019-01-03T05:07:36.146Z,5.50
2019-01-03T05:08:36.062Z,3.00
2019-01-03T05:10:28.862Z,3.10
2019-01-03T05:11:28.815Z,4.30
2019-01-03T05:13:22.108Z,2.80
2019-01-03T05:14:22.035Z,3.00
2019-01-03T05:16:14.834Z,2.70
2019-01-03T05:17:14.805Z,3.30
2019-01-03T05:19:07.605Z,3.20
2019-01-03T05:20:07.549Z,3.40
2019-01-03T05:22:00.787Z,3.20
2019-01-03T05:23:00.739Z,5.00
2019-01-03T05:24:54.078Z,2.90
2019-01-03T05:25:54.004Z,2.80
2019-01-03T05:27:47.287Z,3.30
2019-01-03T05:28:47.254Z,3.00
2019-01-03T05:30:40.540Z,4.20
2019-01-03T05:31:40.467Z,2.60
2019-01-03T05:33:33.287Z,4.30
2019-01-03T05:34:33.234Z,3.50
2019-01-03T05:36:26.048Z,3.30
2019-01-03T05:37:26.012Z,4.30
2019-01-03T05:39:18.814Z,3.20
2019-01-03T05:40:18.743Z,3.30
2019-01-03T05:42:12.057Z,2.50
2019-01-03T05:43:12.012Z,3.20
2019-01-03T05:45:05.278Z,2.90
2019-01-03T05:46:05.201Z,3.60
2019-01-03T05:47:58.438Z,3.70
2019-01-03T05:48:58.393Z,3.60
2019-01-03T05:50:51.649Z,3.80
2019-01-03T05:51:51.580Z,3.90
2019-01-03T05:53:44.388Z,3.70
2019-01-03T05:54:44.336Z,4.40
2019-01-03T05:56:37.613Z,2.40
2019-01-03T05:57:37.549Z,3.40
2019-01-03T05:59:30.375Z,3.10
2019-01-03T06:00:30.305Z,4.00
2019-01-03T06:02:23.108Z,2.80
2019-01-03T06:03:23.046Z,3.20
2019-01-03T06:05:15.884Z,3.10
2019-01-03T06:06:15.807Z,4.20
2019-01-03T06:08:08.599Z,3.80
2019-01-03T06:09:08.551Z,3.50
2019-01-03T06:11:01.838Z,3.50
2019-01-03T06:12:01.781Z,3.40
2019-01-03T06:13:55.027Z,3.90
2019-01-03T06:14:54.976Z,4.40
2019-01-03T06:16:48.278Z,4.60
2019-01-03T06:17:48.204Z,4.50
2019-01-03T06:19:41.469Z,4.40
2019-01-03T06:20:41.420Z,3.30
2019-01-03T06:22:34.225Z,3.70
2019-01-03T06:23:34.162Z,3.80
2019-01-03T06:25:26.983Z,3.60
2019-01-03T06:26:26.911Z,4.70
2019-01-03T06:28:19.703Z,5.90
2019-01-03T06:29:19.654Z,5.60
2019-01-03T06:31:12.471Z,4.70
2019-01-03T06:32:12.442Z,4.50
2019-01-03T06:34:05.202Z,4.70
2019-01-03T06:35:05.155Z,4.40
2019-01-03T06:36:58.464Z,5.40
2019-01-03T06:37:58.395Z,4.50
2019-01-03T06:39:51.671Z,6.10
2019-01-03T06:40:51.648Z,5.50
2019-01-03T06:42:44.916Z,8.20
2019-01-03T06:43:44.845Z,6.50
2019-01-03T06:45:38.109Z,7.30
2019-01-03T06:46:38.062Z,6.70
2019-01-03T06:48:30.884Z,15.70
2019-01-03T06:49:30.811Z,9.30
2019-01-03T06:51:23.626Z,5.00
2019-01-03T06:52:23.555Z,5.50
2019-01-03T06:54:16.357Z,6.60
2019-01-03T06:55:16.326Z,7.50
2019-01-03T06:57:09.133Z,7.30
2019-01-03T06:58:09.060Z,5.70
2019-01-03T07:00:01.858Z,7.60
2019-01-03T07:01:01.810Z,6.90
2019-01-03T07:02:55.086Z,7.20
2019-01-03T07:03:55.025Z,6.80
2019-01-03T07:05:48.319Z,11.20
2019-01-03T07:06:48.243Z,5.90
2019-01-03T07:08:41.504Z,7.10
2019-01-03T07:09:41.435Z,4.90
2019-01-03T07:11:34.709Z,7.50
2019-01-03T07:12:34.654Z,12.40
2019-01-03T07:14:27.469Z,7.30
2019-01-03T07:15:27.396Z,15.00
2019-01-03T07:17:20.218Z,12.10
2019-01-03T07:18:20.175Z,9.80
2019-01-03T07:20:12.944Z,11.20
2019-01-03T07:21:12.895Z,9.60
2019-01-03T07:23:05.712Z,8.80
2019-01-03T07:24:05.643Z,8.60
2019-01-03T07:25:58.448Z,8.40
2019-01-03T07:26:58.395Z,7.40
2019-01-03T07:28:51.686Z,11.00
2019-01-03T07:29:51.615Z,10.70
2019-01-03T07:31:44.899Z,8.40
2019-01-03T07:32:44.856Z,6.90
2019-01-03T07:34:38.124Z,8.80
2019-01-03T07:35:38.047Z,10.10
2019-01-03T07:37:30.849Z,6.90
2019-01-03T07:38:30.806Z,7.20
2019-01-03T07:40:24.113Z,10.20
2019-01-03T07:41:24.044Z,8.50
2019-01-03T07:43:17.318Z,7.70
2019-01-03T07:44:17.257Z,8.40
2019-01-03T07:46:10.100Z,12.20
2019-01-03T07:47:10.045Z,6.10
2019-01-03T07:49:02.859Z,8.70
2019-01-03T07:50:02.789Z,8.70
2019-01-03T07:51:55.579Z,8.10
2019-01-03T07:52:55.552Z,8.60
2019-01-03T07:54:48.346Z,6.90
2019-01-03T07:55:48.281Z,8.40
2019-01-03T07:57:41.081Z,6.60
2019-01-03T07:58:41.029Z,5.70
2019-01-03T08:00:34.300Z,6.90
2019-01-03T08:01:34.227Z,9.10
2019-01-03T08:03:27.007Z,10.40
2019-01-03T08:04:26.963Z,7.90
2019-01-03T08:06:19.797Z,8.50
2019-01-03T08:07:19.709Z,7.70
2019-01-03T08:09:12.621Z,6.50
2019-01-03T08:10:12.465Z,8.10
2019-01-03T08:12:05.251Z,9.60
2019-01-03T08:13:05.203Z,5.90
2019-01-03T08:14:58.021Z,6.70
2019-01-03T08:15:57.954Z,6.30
2019-01-03T08:16:57.926Z,6.70
2019-01-03T08:17:57.867Z,7.00
2019-01-03T08:18:57.822Z,9.80
2019-01-03T08:19:57.778Z,6.60
2019-01-03T08:20:57.734Z,7.10
2019-01-03T08:21:57.688Z,7.20
2019-01-03T08:22:57.658Z,7.00
2019-01-03T08:23:57.603Z,7.40
2019-01-03T08:24:57.554Z,7.00
2019-01-03T08:25:57.509Z,8.30
2019-01-03T08:26:57.465Z,7.40
2019-01-03T08:27:57.420Z,7.20
2019-01-03T08:28:57.377Z,6.80
2019-01-03T08:29:57.344Z,9.00
2019-01-03T08:30:57.288Z,9.10
2019-01-03T08:31:57.243Z,6.40
2019-01-03T08:32:57.199Z,7.10
2019-01-03T08:33:57.155Z,7.20
2019-01-03T08:34:57.111Z,10.10
2019-01-03T08:35:57.067Z,9.60
2019-01-03T08:36:57.023Z,6.70
2019-01-03T08:37:56.981Z,8.90
2019-01-03T08:38:56.935Z,8.60
2019-01-03T08:39:58.097Z,11.70
2019-01-03T08:40:56.847Z,15.90
2019-01-03T08:41:56.806Z,16.80
2019-01-03T08:42:56.758Z,16.40
2019-01-03T08:43:56.715Z,12.70
2019-01-03T08:44:56.671Z,11.20
2019-01-03T08:45:56.627Z,14.60
2019-01-03T08:46:56.583Z,15.10
2019-01-03T08:47:56.539Z,14.60
2019-01-03T08:49:00.475Z,12.60
2019-01-03T08:49:56.488Z,11.60
2019-01-03T08:50:56.401Z,9.90
2019-01-03T08:51:56.363Z,10.50
2019-01-03T08:52:56.315Z,12.90
2019-01-03T08:53:56.262Z,11.60
2019-01-03T08:54:56.226Z,8.50
2019-01-03T08:55:56.176Z,11.70
2019-01-03T08:56:56.147Z,15.80
2019-01-03T08:57:56.237Z,8.10
2019-01-03T08:58:56.046Z,14.50
2019-01-03T08:59:56.005Z,13.00
2019-01-03T09:00:55.959Z,12.00
2019-01-03T09:01:55.913Z,9.80
2019-01-03T09:02:55.870Z,8.20
2019-01-03T09:03:55.825Z,12.30
2019-01-03T09:04:55.783Z,8.40
2019-01-03T09:05:55.735Z,8.80
2019-01-03T09:06:55.696Z,7.80
2019-01-03T09:07:55.645Z,9.70
2019-01-03T09:08:55.605Z,8.40
2019-01-03T09:09:55.559Z,11.60
2019-01-03T09:10:55.518Z,6.30
2019-01-03T09:11:55.473Z,9.60
2019-01-03T09:12:55.429Z,8.70
2019-01-03T09:13:55.383Z,10.90
2019-01-03T09:14:55.340Z,9.30
2019-01-03T09:15:55.291Z,9.20
2019-01-03T09:16:55.251Z,8.80
2019-01-03T09:17:55.204Z,11.10
2019-01-03T09:18:55.163Z,11.60
2019-01-03T09:19:55.119Z,6.60
2019-01-03T09:20:55.074Z,8.00
2019-01-03T09:21:55.026Z,7.10
2019-01-03T09:22:54.985Z,8.80
2019-01-03T09:23:56.323Z,7.40
2019-01-03T09:24:54.897Z,7.00
2019-01-03T09:25:54.852Z,6.60
2019-01-03T09:26:54.808Z,6.50
2019-01-03T09:27:54.795Z,7.20
2019-01-03T09:28:54.722Z,8.30
2019-01-03T09:29:54.677Z,7.10
2019-01-03T09:30:54.631Z,5.30
2019-01-03T09:31:54.589Z,6.60
2019-01-03T09:32:54.545Z,5.70
2019-01-03T09:33:54.501Z,8.60
2019-01-03T09:34:54.452Z,9.60
2019-01-03T09:35:54.409Z,8.40
2019-01-03T09:36:54.365Z,8.90
2019-01-03T09:37:54.320Z,7.40
2019-01-03T09:38:54.316Z,8.20
2019-01-03T09:39:54.233Z,11.30
2019-01-03T09:40:54.200Z,7.80
2019-01-03T09:41:54.144Z,7.10
2019-01-03T09:42:54.101Z,7.70
2019-01-03T09:43:54.058Z,7.20
2019-01-03T09:44:54.014Z,7.80
2019-01-03T09:45:54.956Z,8.80
2019-01-03T09:46:53.925Z,10.10
2019-01-03T09:47:53.876Z,8.80
2019-01-03T09:48:53.836Z,6.60
2019-01-03T09:49:53.791Z,7.20
2019-01-03T09:50:53.750Z,9.70
2019-01-03T09:51:53.717Z,7.60
2019-01-03T09:52:53.659Z,7.80
2019-01-03T09:53:53.616Z,7.20
2019-01-03T09:54:53.572Z,12.40
2019-01-03T09:55:53.529Z,12.10
2019-01-03T09:56:53.481Z,12.10
2019-01-03T09:57:53.435Z,8.80
2019-01-03T09:58:53.392Z,10.50
2019-01-03T09:59:53.345Z,9.70
2019-01-03T10:00:53.303Z,7.00
2019-01-03T10:01:53.272Z,8.70
2019-01-03T10:02:53.218Z,8.90
2019-01-03T10:03:53.167Z,9.30
2019-01-03T10:04:53.126Z,11.70
2019-01-03T10:05:53.085Z,8.70
2019-01-03T10:06:53.045Z,10.00
2019-01-03T10:07:52.996Z,8.10
2019-01-03T10:08:52.948Z,8.00
2019-01-03T10:09:52.901Z,10.50
2019-01-03T10:10:52.861Z,12.30
2019-01-03T10:11:52.819Z,9.10
2019-01-03T10:12:52.773Z,9.50
2019-01-03T10:13:52.730Z,9.70
2019-01-03T10:30:51.448Z,12.50
2019-01-03T10:31:51.365Z,8.90
2019-01-03T10:33:44.160Z,10.90
2019-01-03T10:34:44.319Z,13.60
2019-01-03T10:36:36.906Z,16.70
2019-01-03T10:37:36.835Z,13.80
2019-01-03T10:38:36.788Z,15.00
2019-01-03T10:39:36.737Z,12.40
2019-01-03T10:40:36.692Z,9.30
2019-01-03T10:41:36.656Z,16.30
2019-01-03T10:42:36.598Z,14.00
2019-01-03T10:43:36.575Z,10.10
2019-01-03T10:44:36.515Z,13.40
2019-01-03T10:45:36.467Z,9.90
2019-01-03T10:46:36.422Z,9.00
2019-01-03T10:47:36.383Z,12.90
2019-01-03T10:48:36.326Z,12.70
2019-01-03T10:49:36.288Z,12.60
2019-01-03T10:50:36.238Z,13.30
2019-01-03T10:51:36.191Z,8.80
2019-01-03T10:52:36.147Z,8.00
2019-01-03T10:53:36.103Z,16.00
2019-01-03T10:54:36.055Z,9.70
2019-01-03T10:55:36.012Z,12.30
2019-01-03T10:56:35.968Z,12.60
2019-01-03T10:57:35.925Z,12.90
2019-01-03T10:58:35.879Z,13.70
2019-01-03T10:59:35.836Z,14.40
2019-01-03T11:00:35.793Z,17.80
2019-01-03T11:01:35.749Z,11.90
2019-01-03T11:02:35.695Z,13.60
2019-01-03T11:03:35.649Z,11.70
2019-01-03T11:04:35.620Z,16.20
2019-01-03T11:05:35.566Z,12.30
2019-01-03T11:06:35.532Z,16.00
2019-01-03T11:07:35.477Z,14.80
2019-01-03T11:08:35.442Z,12.60
2019-01-03T11:09:35.386Z,19.00
2019-01-03T11:10:35.346Z,10.60
2019-01-03T11:11:35.295Z,17.30
2019-01-03T11:12:35.256Z,12.30
2019-01-03T11:13:35.212Z,13.90
2019-01-03T11:14:35.165Z,11.70
2019-01-03T11:15:35.123Z,10.70
2019-01-03T11:16:35.078Z,11.10
2019-01-03T11:17:35.031Z,10.80
2019-01-03T11:18:34.991Z,19.90
2019-01-03T11:19:34.950Z,8.40
2019-01-03T11:20:34.904Z,11.20
2019-01-03T11:21:34.858Z,13.80
2019-01-03T11:22:34.814Z,11.90
2019-01-03T11:23:34.769Z,14.20
2019-01-03T11:24:34.724Z,11.60
2019-01-03T11:25:34.681Z,11.90
2019-01-03T11:26:34.637Z,10.70
2019-01-03T11:27:34.592Z,9.60
2019-01-03T11:28:34.547Z,12.80
2019-01-03T11:29:34.505Z,12.40
2019-01-03T11:30:34.462Z,13.50
2019-01-03T11:31:34.416Z,8.90
2019-01-03T11:32:34.372Z,10.70
2019-01-03T11:33:34.327Z,10.40
2019-01-03T11:34:34.278Z,11.50
2019-01-03T11:35:34.270Z,10.50
2019-01-03T11:36:34.197Z,14.90
2019-01-03T11:37:34.153Z,13.80
2019-01-03T11:38:34.110Z,9.80
2019-01-03T11:39:34.063Z,8.10
2019-01-03T11:40:34.015Z,12.10
2019-01-03T11:41:33.975Z,11.50
2019-01-03T11:42:33.935Z,8.90
2019-01-03T11:43:33.888Z,9.30
2019-01-03T11:44:33.862Z,10.10
2019-01-03T11:45:33.802Z,7.50
2019-01-03T11:46:33.755Z,9.60
2019-01-03T11:47:33.711Z,9.50
2019-01-03T11:48:33.669Z,10.10
2019-01-03T11:49:33.622Z,9.90
2019-01-03T11:50:33.580Z,9.30
2019-01-03T11:51:33.535Z,6.10
2019-01-03T11:52:33.487Z,9.70
2019-01-03T11:53:33.446Z,7.10
2019-01-03T11:54:33.405Z,7.60
2019-01-03T11:55:33.360Z,8.50
2019-01-03T11:56:33.316Z,6.90
2019-01-03T11:57:33.274Z,7.20
2019-01-03T11:58:33.229Z,7.90
2019-01-03T11:59:33.182Z,8.60
2019-01-03T12:00:33.140Z,9.70
2019-01-03T12:01:33.096Z,5.40
2019-01-03T12:02:33.053Z,7.20
2019-01-03T12:03:33.008Z,6.00
2019-01-03T12:04:32.964Z,6.80
2019-01-03T12:05:32.921Z,7.50
2019-01-03T12:06:32.882Z,7.70
2019-01-03T12:07:32.832Z,6.50
2019-01-03T12:08:32.788Z,6.10
2019-01-03T12:09:32.744Z,6.60
2019-01-03T12:10:32.699Z,5.80
2019-01-03T12:11:32.655Z,6.90
2019-01-03T12:12:32.612Z,5.70
2019-01-03T12:13:32.568Z,5.60
2019-01-03T12:14:32.524Z,6.70
2019-01-03T12:15:32.478Z,5.20
2019-01-03T12:16:32.437Z,5.90
2019-01-03T12:17:32.392Z,7.30
2019-01-03T12:18:32.349Z,6.80
2019-01-03T12:19:32.303Z,5.50
2019-01-03T12:20:32.259Z,4.70
2019-01-03T12:21:32.216Z,5.50
2019-01-03T12:22:32.174Z,5.60
2019-01-03T12:23:32.128Z,6.60
2019-01-03T12:24:32.080Z,4.80
2019-01-03T12:25:32.051Z,5.60
2019-01-03T12:26:31.996Z,8.00
2019-01-03T12:27:31.952Z,7.90
2019-01-03T12:28:31.909Z,8.60
2019-01-03T12:29:31.863Z,5.80
2019-01-03T12:30:31.838Z,4.70
2019-01-03T12:31:31.774Z,6.80
2019-01-03T12:32:31.733Z,7.90
2019-01-03T12:33:31.779Z,7.30
2019-01-03T12:34:31.645Z,8.20
2019-01-03T12:35:31.597Z,6.80
2019-01-03T12:36:31.555Z,5.80
2019-01-03T12:37:31.513Z,7.90
2019-01-03T12:38:31.469Z,7.20
2019-01-03T12:39:31.424Z,7.50
2019-01-03T12:40:31.380Z,9.20
2019-01-03T12:41:31.339Z,6.00
2019-01-03T12:42:31.338Z,6.30
2019-01-03T12:43:31.245Z,6.40
2019-01-03T12:44:31.203Z,8.00
2019-01-03T12:45:31.160Z,6.80
2019-01-03T12:46:31.126Z,6.20
2019-01-03T12:47:31.073Z,8.30
2019-01-03T12:48:31.030Z,7.80
2019-01-03T12:49:30.995Z,6.70
2019-01-03T12:50:31.051Z,8.20
2019-01-03T12:51:30.891Z,5.10
2019-01-03T12:52:30.854Z,5.00
2019-01-03T12:53:30.807Z,9.30
2019-01-03T12:54:30.766Z,7.10
2019-01-03T12:55:30.719Z,6.00
2019-01-03T12:56:30.721Z,7.50
2019-01-03T12:57:30.624Z,4.00
2019-01-03T12:58:30.587Z,5.50
2019-01-03T12:59:30.544Z,7.60
2019-01-03T13:00:30.527Z,4.30
2019-01-03T13:01:30.457Z,9.40
2019-01-03T13:02:30.420Z,6.50
2019-01-03T13:03:30.369Z,6.40
2019-01-03T13:04:30.327Z,6.20
2019-01-03T13:05:30.280Z,5.00
2019-01-03T13:06:30.290Z,11.70
2019-01-03T13:07:30.186Z,5.80
2019-01-03T13:08:30.148Z,6.10
2019-01-03T13:09:30.099Z,7.30
2019-01-03T13:10:30.092Z,9.60
2019-01-03T13:11:30.011Z,6.80
2019-01-03T13:12:30.058Z,4.70
2019-01-03T13:13:29.940Z,6.60
2019-01-03T13:14:29.877Z,10.20
2019-01-03T13:15:29.833Z,7.10
2019-01-03T13:16:29.794Z,7.90
2019-01-03T13:17:29.749Z,6.40
2019-01-03T13:18:29.710Z,7.20
2019-01-03T13:19:29.658Z,6.90
2019-01-03T13:20:29.619Z,4.80
2019-01-03T13:21:29.570Z,5.50
2019-01-03T13:22:29.527Z,8.90
2019-01-03T13:23:29.482Z,6.70
2019-01-03T13:24:29.443Z,6.10
2019-01-03T13:25:29.395Z,5.40
2019-01-03T13:26:29.350Z,9.90
2019-01-03T13:27:29.309Z,5.60
2019-01-03T13:28:29.263Z,6.20
2019-01-03T13:29:29.222Z,8.30
2019-01-03T13:30:29.179Z,7.10
2019-01-03T13:31:29.142Z,3.40
2019-01-03T13:32:29.094Z,7.80
2019-01-03T13:33:29.050Z,7.10
2019-01-03T13:34:29.001Z,4.80
2019-01-03T13:35:28.956Z,6.70
2019-01-03T13:36:28.918Z,6.20
2019-01-03T13:37:28.872Z,5.70
2019-01-03T13:38:28.823Z,3.70
2019-01-03T13:39:28.812Z,6.90
2019-01-03T13:40:28.743Z,8.10
2019-01-03T13:41:28.695Z,6.10
2019-01-03T13:42:28.740Z,5.80
2019-01-03T13:43:28.607Z,5.60
2019-01-03T13:44:28.565Z,4.10
2019-01-03T13:45:28.523Z,4.90
2019-01-03T13:46:28.475Z,6.20
2019-01-03T13:47:28.434Z,5.90
2019-01-03T13:48:28.384Z,5.50
2019-01-03T13:49:28.343Z,6.60
2019-01-03T13:50:28.298Z,6.40
2019-01-03T13:51:28.271Z,9.30
2019-01-03T13:52:28.211Z,5.70
2019-01-03T13:53:28.169Z,6.10
2019-01-03T13:54:28.153Z,5.20
2019-01-03T13:56:27.782Z,2.20
2019-01-03T13:57:27.715Z,4.10
2019-01-03T13:59:21.554Z,6.10
2019-01-03T14:00:21.469Z,7.20
2019-01-03T14:02:14.779Z,7.70
2019-01-03T14:03:14.829Z,5.30
2019-01-03T14:05:07.986Z,5.30
2019-01-03T14:06:07.956Z,6.10
2019-01-03T14:08:01.207Z,5.50
2019-01-03T14:09:01.131Z,8.20
2019-01-03T14:10:54.934Z,9.80
2019-01-03T14:11:54.864Z,6.00
2019-01-03T14:13:48.205Z,5.50
2019-01-03T14:14:48.174Z,5.00
2019-01-03T14:16:41.013Z,6.10
2019-01-03T14:17:40.896Z,6.20
2019-01-03T14:18:41.096Z,6.50
2019-01-03T14:19:40.799Z,5.10
2019-01-03T14:20:40.755Z,4.80
2019-01-03T14:21:40.712Z,8.40
2019-01-03T14:22:40.665Z,5.50
2019-01-03T14:23:40.661Z,5.00
2019-01-03T14:24:40.701Z,5.00
2019-01-03T14:25:40.530Z,4.20
2019-01-03T14:26:40.486Z,3.90
2019-01-03T14:27:40.446Z,4.80
2019-01-03T14:28:40.400Z,7.90
2019-01-03T14:29:40.359Z,3.50
2019-01-03T14:30:40.362Z,6.20
2019-01-03T14:31:40.267Z,6.60
2019-01-03T14:32:40.225Z,4.60
2019-01-03T14:33:41.046Z,4.90
2019-01-03T14:34:40.134Z,9.20
2019-01-03T14:35:40.094Z,5.00
2019-01-03T14:36:40.050Z,3.80
2019-01-03T14:37:40.008Z,3.80
2019-01-03T14:38:39.972Z,4.70
2019-01-03T14:39:39.939Z,5.40
2019-01-03T14:40:39.880Z,4.00
2019-01-03T14:41:39.831Z,5.60
2019-01-03T14:42:39.801Z,4.80
2019-01-03T14:43:39.743Z,4.30
2019-01-03T14:44:39.701Z,4.10
2019-01-03T14:45:39.655Z,4.50
2019-01-03T14:46:39.609Z,6.80
2019-01-03T14:47:39.566Z,5.40
2019-01-03T14:48:39.524Z,6.10
2019-01-03T14:49:39.479Z,5.30
2019-01-03T14:50:39.437Z,7.90
2019-01-03T14:51:39.392Z,9.20
2019-01-03T14:52:39.344Z,9.40
2019-01-03T14:53:39.304Z,13.10
2019-01-03T14:54:39.261Z,6.90
2019-01-03T14:55:39.216Z,6.80
2019-01-03T14:56:39.169Z,12.00
2019-01-03T14:57:39.127Z,8.10
2019-01-03T14:58:39.089Z,9.40
2019-01-03T14:59:39.039Z,11.20
2019-01-03T15:00:38.992Z,10.10
2019-01-03T15:01:38.951Z,7.70
2019-01-03T15:02:38.907Z,18.90
2019-01-03T15:03:38.864Z,7.10
2019-01-03T15:04:38.820Z,11.20
2019-01-03T15:05:38.777Z,7.90
2019-01-03T15:06:38.733Z,12.60
2019-01-03T15:07:38.687Z,7.40
2019-01-03T15:08:38.643Z,10.90
2019-01-03T15:09:38.599Z,6.00
2019-01-03T15:10:38.556Z,12.80
2019-01-03T15:11:38.510Z,9.70
2019-01-03T15:12:38.463Z,6.20
2019-01-03T15:13:38.425Z,7.90
2019-01-03T15:14:38.376Z,9.30
2019-01-03T15:15:38.337Z,7.70
2019-01-03T15:16:38.296Z,11.60
2019-01-03T15:17:38.250Z,5.90
2019-01-03T15:18:38.205Z,8.10
2019-01-03T15:19:38.158Z,13.70
2019-01-03T15:20:38.109Z,12.10
2019-01-03T15:21:38.069Z,15.40
2019-01-03T15:22:38.027Z,7.80
2019-01-03T15:23:37.983Z,9.10
2019-01-03T15:24:37.942Z,8.50
2019-01-03T15:25:37.895Z,8.30
2019-01-03T15:26:37.854Z,8.20
2019-01-03T15:27:37.819Z,10.40
2019-01-03T15:28:37.764Z,7.50
2019-01-03T15:29:37.718Z,9.30
2019-01-03T15:30:37.673Z,11.30
2019-01-03T15:31:37.633Z,8.10
2019-01-03T15:32:37.588Z,10.90
2019-01-03T15:33:37.544Z,10.50
2019-01-03T15:34:37.500Z,8.90
2019-01-03T15:35:37.467Z,9.20
2019-01-03T15:36:37.412Z,9.60
2019-01-03T15:37:37.364Z,16.00
2019-01-03T15:38:37.325Z,5.50
2019-01-03T15:39:37.279Z,8.10
2019-01-03T15:40:37.231Z,8.80
2019-01-03T15:41:37.192Z,10.10
2019-01-03T15:42:37.149Z,9.40
2019-01-03T15:43:37.103Z,9.90
2019-01-03T15:44:37.059Z,10.70
2019-01-03T15:45:37.017Z,8.10
2019-01-03T15:46:36.974Z,20.40
2019-01-03T15:47:38.947Z,7.80
2019-01-03T15:48:38.405Z,8.80
2019-01-03T15:49:36.839Z,10.80
2019-01-03T15:50:38.771Z,8.30
2019-01-03T15:51:38.781Z,8.70
2019-01-03T15:52:37.552Z,5.40
2019-01-03T15:53:38.411Z,12.00
2019-01-03T15:54:36.877Z,7.10
2019-01-03T15:55:37.380Z,8.10
2019-01-03T15:56:36.532Z,8.90
2019-01-03T15:57:36.488Z,9.60
2019-01-03T15:58:38.501Z,10.20
2019-01-03T15:59:38.891Z,7.40
2019-01-03T16:00:37.893Z,9.40
2019-01-03T16:01:36.323Z,6.30
2019-01-03T16:02:36.268Z,7.10
2019-01-03T16:03:36.225Z,6.00
2019-01-03T16:04:36.182Z,5.90
2019-01-03T16:05:36.137Z,7.00
2019-01-03T16:06:36.093Z,10.70
2019-01-03T16:07:36.049Z,7.00
2019-01-03T16:08:36.005Z,5.20
2019-01-03T16:09:35.960Z,9.70
2019-01-03T16:10:35.917Z,4.20